Time;durP1;ratioP1;P1;durP2;ratioP2;P2;SDS_P1;SDS_P2;PMS_P1;PMS_P2;Temp;Humidity;BMP_temperature;BMP_pressure;BME280_temperature;BME280_humidity;BME280_pressure;Samples;Min_cycle;Max_cycle;Signal;HPM_P1;HPM_P2
2023/06/07 00:01:42;;;;;;;;;;;;;;;16.77;74.64;102027.56;5090199;28;20024;-37
2023/06/07 00:04:08;;;;;;;8.05;4.15;;;;;;;16.45;76.39;102028.00;5089916;28;19956;-37
2023/06/07 00:06:33;;;;;;;;;;;;;;;16.62;74.72;102034.34;5090353;28;20425;-37
2023/06/07 00:08:58;;;;;;;7.47;4.03;;;;;;;16.39;76.63;102028.94;5089521;28;19957;-37
2023/06/07 00:11:24;;;;;;;;;;;;;;;16.53;74.68;102034.97;5082650;28;20258;-37
2023/06/07 00:13:52;;;;;;;8.00;3.80;;;;;;;16.41;76.68;102024.91;5076798;28;19913;-37
2023/06/07 00:16:17;;;;;;;7.80;3.97;;;;;;;16.45;76.39;102025.28;5076244;28;20255;-37
2023/06/07 00:18:43;;;;;;;;;;;;;;;16.56;74.73;102027.13;5077081;28;20021;-36
2023/06/07 00:21:08;;;;;;;10.60;4.47;;;;;;;16.40;77.00;102027.91;5076436;28;20344;-36
2023/06/07 00:23:35;;;;;;;;;;;;;;;16.46;75.66;102033.22;5077062;28;20358;-36
2023/06/07 00:26:01;;;;;;;7.27;3.80;;;;;;;16.24;77.53;102037.63;5076942;28;19912;-36
2023/06/07 00:28:26;;;;;;;;;;;;;;;16.39;75.51;102031.69;5076378;28;20234;-37
2023/06/07 00:30:51;;;;;;;8.82;4.03;;;;;;;16.28;77.87;102032.53;5076503;28;19912;-36
2023/06/07 00:33:17;;;;;;;;;;;;;;;16.27;76.32;102028.97;5076315;28;20039;-37
2023/06/07 00:35:42;;;;;;;5.90;3.93;;;;;;;16.03;77.92;102022.72;5076424;28;19919;-37
2023/06/07 00:38:08;;;;;;;;;;;;;;;16.21;76.00;102030.78;5076020;28;20270;-37
2023/06/07 00:40:34;;;;;;;5.15;3.50;;;;;;;16.02;77.70;102018.34;5076068;28;19912;-37
2023/06/07 00:42:59;;;;;;;;;;;;;;;16.22;76.19;102026.97;5076434;28;20047;-37
2023/06/07 00:45:25;;;;;;;6.80;4.13;;;;;;;15.97;77.83;102031.88;5076014;28;20013;-37
2023/06/07 00:47:50;;;;;;;;;;;;;;;16.16;76.14;102019.75;5076071;28;20524;-37
2023/06/07 00:50:15;;;;;;;8.52;4.30;;;;;;;15.98;77.69;102021.78;5075902;28;19916;-36
2023/06/07 00:52:41;;;;;;;;;;;;;;;16.10;76.28;102020.69;5076270;28;20070;-36
2023/06/07 00:55:08;;;;;;;8.23;4.03;;;;;;;15.62;78.29;102001.84;5076048;28;19915;-37
2023/06/07 00:57:35;;;;;;;8.13;4.25;;;;;;;15.69;79.25;102025.22;5075502;28;20483;-37
2023/06/07 01:00:01;;;;;;;7.57;4.00;;;;;;;15.73;79.21;102009.22;5075676;28;20089;-37
2023/06/07 01:02:29;;;;;;;7.75;4.55;;;;;;;15.80;78.70;102023.56;5075163;28;20024;-37
2023/06/07 01:04:57;;;;;;;5.25;3.88;;;;;;;15.69;78.75;102022.50;5075834;28;20107;-37
2023/06/07 01:07:24;;;;;;;5.97;4.03;;;;;;;15.77;78.96;102023.22;5075005;28;20056;-37
2023/06/07 01:09:50;;;;;;;8.38;4.15;;;;;;;15.72;79.32;102025.84;5075720;28;20103;-37
2023/06/07 01:12:18;;;;;;;8.85;4.65;;;;;;;15.58;79.69;102028.75;5075289;28;20357;-37
2023/06/07 01:14:43;;;;;;;8.40;4.25;;;;;;;15.61;79.69;102022.81;5075081;28;20025;-37
2023/06/07 01:17:08;;;;;;;;;;;;;;;15.70;77.98;102017.88;5076120;28;20029;-37
2023/06/07 01:19:36;;;;;;;6.10;3.95;;;;;;;15.39;80.07;102022.56;5075765;28;19967;-37
2023/06/07 01:22:05;;;;;;;6.80;4.47;;;;;;;15.34;80.72;102014.25;5075418;28;20116;-37
2023/06/07 01:24:32;;;;;;;6.78;4.07;;;;;;;15.33;80.94;102023.50;5074517;28;20376;-37
2023/06/07 01:26:59;;;;;;;7.97;4.22;;;;;;;15.24;81.16;102024.06;5074916;28;20034;-37
2023/06/07 01:29:30;;;;;;;7.80;3.95;;;;;;;15.26;81.36;102013.75;5074744;28;20029;-41
2023/06/07 01:32:00;;;;;;;7.45;4.18;;;;;;;15.19;80.92;102013.88;5075021;28;20025;-37
2023/06/07 01:34:27;;;;;;;9.82;4.47;;;;;;;15.15;81.84;102016.22;5074721;28;20431;-37
2023/06/07 01:36:55;;;;;;;6.53;3.88;;;;;;;15.11;81.95;102012.28;5074931;28;20039;-37
2023/06/07 01:39:21;;;;;;;7.63;4.20;;;;;;;15.16;82.05;102017.88;5074743;28;20449;-37
2023/06/07 01:41:50;;;;;;;8.10;4.55;;;;;;;15.16;82.59;102012.44;5074623;28;20032;-37
2023/06/07 01:44:16;;;;;;;6.50;4.13;;;;;;;15.09;83.01;102010.88;5074506;28;20024;-37
2023/06/07 01:46:42;;;;;;;7.50;4.70;;;;;;;15.14;82.60;102011.00;5074555;28;20024;-37
2023/06/07 01:49:08;;;;;;;9.68;5.10;;;;;;;15.02;82.60;102023.75;5074472;28;20436;-37
2023/06/07 01:51:33;;;;;;;;;;;;;;;15.20;81.84;102012.78;5075136;28;20111;-37
2023/06/07 01:53:59;;;;;;;7.53;4.63;;;;;;;15.12;82.12;102015.84;5074327;28;19938;-38
2023/06/07 01:57:04;;;;;;;7.85;4.38;;;;;;;15.11;81.95;102009.56;5074657;28;20727;-37
2023/06/07 01:59:47;;;;;;;7.60;4.78;;;;;;;15.02;82.12;101994.63;5074250;28;20048;-37
2023/06/07 02:02:49;;;;;;;7.85;4.60;;;;;;;14.96;82.74;102003.72;5075001;28;20032;-37
2023/06/07 02:05:24;;;;;;;7.53;4.53;;;;;;;15.01;82.56;101994.84;5074157;28;20067;-37
2023/06/07 02:07:53;;;;;;;7.28;4.85;;;;;;;14.90;83.05;101991.03;5073712;28;20362;-37
2023/06/07 02:10:21;;;;;;;7.53;4.78;;;;;;;14.75;83.56;101996.09;5074574;28;20032;-37
2023/06/07 02:12:49;;;;;;;6.78;4.38;;;;;;;14.72;83.73;102005.53;5074619;28;20063;-37
2023/06/07 02:15:15;;;;;;;7.60;4.88;;;;;;;14.60;84.58;101997.31;5073960;28;20362;-36
2023/06/07 02:17:57;;;;;;;;;;;;;;;14.90;81.84;101999.22;5074392;28;20039;-36
2023/06/07 02:20:25;;;;;;;8.70;4.80;;;;;;;14.72;83.94;102000.09;5074097;28;20006;-36
2023/06/07 02:22:50;;;;;;;6.85;4.40;;;;;;;14.63;84.06;101996.84;5074443;28;20056;-36
2023/06/07 02:25:15;;;;;;;;;;;;;;;14.74;82.05;101997.97;5074317;28;20457;-36
2023/06/07 02:27:41;;;;;;;8.52;4.70;;;;;;;14.57;84.67;102003.22;5073796;28;19919;-37
2023/06/07 02:30:07;;;;;;;;;;;;;;;14.81;81.80;102014.22;5074219;28;20043;-38
2023/06/07 02:32:33;;;;;;;7.43;4.30;;;;;;;14.65;83.83;102005.63;5073708;28;20364;-37
2023/06/07 02:34:58;;;;;;;;;;;;;;;14.89;81.66;102005.72;5074138;28;20125;-37
2023/06/07 02:37:23;;;;;;;8.50;5.07;;;;;;;14.56;83.62;102001.56;5074508;28;19973;-37
2023/06/07 02:39:49;;;;;;;;;;;;;;;14.81;81.20;102003.31;5073726;28;20024;-37
2023/06/07 02:42:14;;;;;;;6.40;4.70;;;;;;;14.54;84.14;101992.81;5073701;28;19913;-37
2023/06/07 02:44:39;;;;;;;;;;;;;;;14.73;82.76;102001.75;5073802;28;20035;-36
2023/06/07 02:47:05;;;;;;;7.50;4.35;;;;;;;14.51;84.53;102001.41;5073833;28;19999;-37
2023/06/07 02:49:30;;;;;;;8.80;4.97;;;;;;;14.49;85.01;102011.69;5073879;28;20044;-36
2023/06/07 02:51:55;;;;;;;;;;;;;;;14.49;84.34;102010.84;5073683;28;20032;-37
2023/06/07 02:54:21;;;;;;;10.17;4.67;;;;;;;14.06;86.40;102001.72;5073435;28;19916;-37
2023/06/07 02:56:46;;;;;;;;;;;;;;;14.38;83.89;102012.44;5074526;28;20028;-37
2023/06/07 02:59:11;;;;;;;7.47;4.20;;;;;;;14.27;85.57;102008.59;5073707;28;19916;-37
2023/06/07 03:01:37;;;;;;;9.13;4.68;;;;;;;14.28;85.61;102014.84;5073172;28;20255;-36
2023/06/07 03:04:03;;;;;;;;;;;;;;;14.45;83.42;102015.09;5073856;28;20534;-37
2023/06/07 03:06:29;;;;;;;8.07;4.90;;;;;;;14.31;85.66;102003.53;5073415;28;19912;-36
2023/06/07 03:08:54;;;;;;;;;;;;;;;14.40;83.55;102016.59;5074325;28;20066;-36
2023/06/07 03:11:20;;;;;;;9.30;4.38;;;;;;;14.07;86.50;102010.69;5073659;28;19909;-36
2023/06/07 03:13:46;;;;;;;8.68;5.00;;;;;;;13.86;87.42;102001.94;5073516;28;20400;-37
2023/06/07 03:16:11;;;;;;;;;;;;;;;14.17;84.76;102014.56;5073791;28;20028;-37
2023/06/07 03:18:36;;;;;;;7.43;4.47;;;;;;;13.98;87.17;102002.00;5072974;28;20007;-37
2023/06/07 03:21:02;;;;;;;8.73;4.90;;;;;;;13.97;87.84;102019.38;5073811;28;20319;-37
2023/06/07 03:23:28;;;;;;;9.93;4.72;;;;;;;13.81;88.55;102019.94;5073486;28;20298;-36
2023/06/07 03:25:56;;;;;;;9.57;4.50;;;;;;;13.97;88.28;102016.66;5073739;28;20033;-37
2023/06/07 03:28:22;;;;;;;9.63;4.78;;;;;;;13.81;89.08;102009.94;5073081;28;20033;-37
2023/06/07 03:30:48;;;;;;;6.95;4.22;;;;;;;13.98;88.93;102015.59;5072818;28;20036;-37
2023/06/07 03:33:13;;;;;;;;;;;;;;;14.10;86.46;102010.22;5074041;28;20025;-37
2023/06/07 03:35:39;;;;;;;5.70;4.50;;;;;;;13.93;88.71;102023.59;5073145;28;19908;-36
2023/06/07 03:38:05;;;;;;;10.75;5.15;;;;;;;13.98;88.40;102023.75;5073310;28;20408;-37
2023/06/07 03:40:30;;;;;;;;;;;;;;;14.11;86.29;102020.91;5073730;28;20036;-37
2023/06/07 03:42:56;;;;;;;9.80;4.73;;;;;;;14.00;87.69;102027.06;5073615;28;19913;-37
2023/06/07 03:45:21;;;;;;;8.60;5.03;;;;;;;14.03;88.67;102026.63;5073643;28;20301;-36
2023/06/07 03:47:46;;;;;;;10.15;4.65;;;;;;;13.72;89.03;102024.03;5075378;28;20275;-37
2023/06/07 03:50:11;;;;;;;;;;;;;;;13.99;86.64;102027.31;5077223;28;20028;-36
2023/06/07 03:52:37;;;;;;;6.78;4.30;;;;;;;13.74;89.13;102030.06;5109045;28;19987;-36
2023/06/07 03:55:03;;;;;;;10.40;4.70;;;;;;;13.82;89.39;102027.06;5077489;28;20043;-37
2023/06/07 03:57:28;;;;;;;7.07;4.18;;;;;;;13.76;89.21;102036.09;5077199;28;20056;-36
2023/06/07 03:59:53;;;;;;;14.05;4.75;;;;;;;13.81;89.41;102014.50;5087218;28;20060;-37
2023/06/07 04:02:19;;;;;;;7.43;4.72;;;;;;;13.74;89.30;102013.75;5077024;28;20473;-37
2023/06/07 04:04:44;;;;;;;;;;;;;;;13.96;87.12;102023.16;5076900;28;20069;-37
2023/06/07 04:07:10;;;;;;;7.83;4.03;;;;;;;13.85;89.11;102013.84;5076718;28;19924;-37
2023/06/07 04:09:35;;;;;;;9.00;4.63;;;;;;;13.75;89.19;102024.38;5076368;28;20341;-36
2023/06/07 04:12:01;;;;;;;7.97;4.65;;;;;;;13.69;89.63;102010.88;5076663;28;20032;-36
2023/06/07 04:14:27;;;;;;;9.88;4.80;;;;;;;13.64;90.14;102008.81;5075945;28;20468;-37
2023/06/07 04:16:52;;;;;;;;;;;;;;;13.83;87.98;102017.84;5077216;28;20025;-37
2023/06/07 04:19:17;;;;;;;6.03;3.97;;;;;;;13.71;89.73;102023.16;5075878;28;20373;-36
2023/06/07 04:21:43;;;;;;;10.52;4.30;;;;;;;13.73;89.84;102021.06;5075875;28;20777;-36
2023/06/07 04:24:08;;;;;;;;;;;;;;;13.81;88.38;102020.81;5077142;28;20028;-36
2023/06/07 04:26:35;;;;;;;9.68;4.97;;;;;;;13.62;90.08;102021.81;5076419;28;19974;-36
2023/06/07 04:29:00;;;;;;;7.60;4.32;;;;;;;13.78;90.22;102018.50;5076032;28;20021;-36
2023/06/07 04:31:29;;;;;;;;;;;;;;;13.93;88.05;102023.59;5077029;28;20024;-37
2023/06/07 04:34:01;;;;;;;9.82;4.72;;;;;;;13.80;89.59;102013.69;5075931;28;19956;-37
2023/06/07 04:36:28;;;;;;;11.35;5.05;;;;;;;13.78;90.23;102018.50;5075950;28;20068;-37
2023/06/07 04:38:55;;;;;;;9.18;4.68;;;;;;;13.75;90.36;102018.94;5075458;28;20025;-37
2023/06/07 04:41:30;;;;;;;11.48;4.40;;;;;;;13.71;90.34;102025.06;5076111;28;20079;-37
2023/06/07 04:44:03;;;;;;;11.43;4.60;;;;;;;13.71;90.49;102025.88;5075798;28;20047;-36
2023/06/07 04:46:30;;;;;;;8.15;4.07;;;;;;;13.78;89.95;102025.84;5075745;28;20050;-36
2023/06/07 04:48:56;;;;;;;11.43;4.93;;;;;;;13.78;90.60;102042.16;5075601;28;20082;-37
2023/06/07 04:51:22;;;;;;;;;;;;;;;13.95;88.74;102043.22;5076660;28;20031;-36
2023/06/07 04:53:49;;;;;;;8.55;4.28;;;;;;;13.89;89.60;102041.41;5075508;28;20331;-37
2023/06/07 04:56:14;;;;;;;10.48;4.35;;;;;;;13.92;89.98;102043.69;5076426;28;20029;-37
2023/06/07 04:58:40;;;;;;;;;;;;;;;13.96;88.93;102031.31;5075790;28;20491;-37
2023/06/07 05:01:09;;;;;;;7.47;4.55;;;;;;;13.63;90.52;102027.03;5075495;28;19916;-38
2023/06/07 05:03:36;;;;;;;8.13;4.30;;;;;;;13.66;90.60;102033.88;5075595;28;20059;-37
2023/06/07 05:06:03;;;;;;;11.35;4.70;;;;;;;13.56;91.62;102036.28;5075568;28;20484;-37
2023/06/07 05:08:28;;;;;;;7.93;4.18;;;;;;;13.60;91.56;102024.72;5075197;28;20020;-37
2023/06/07 05:10:53;;;;;;;;;;;;;;;13.81;89.37;102041.69;5076287;28;20043;-36
2023/06/07 05:13:19;;;;;;;8.27;4.32;;;;;;;13.75;90.56;102018.94;5075170;28;19952;-36
2023/06/07 05:15:44;;;;;;;8.57;4.47;;;;;;;13.74;90.32;102019.19;5076001;28;20040;-37
2023/06/07 05:18:10;;;;;;;8.13;4.67;;;;;;;13.82;90.33;102032.50;5075089;28;20024;-37
2023/06/07 05:20:36;;;;;;;7.78;4.47;;;;;;;13.87;90.26;102040.81;5074949;28;20289;-36
2023/06/07 05:23:03;;;;;;;;;;;;;;;13.89;89.70;102038.69;5075108;28;20025;-37
2023/06/07 05:25:29;;;;;;;8.85;5.00;;;;;;;13.81;90.16;102038.97;5074974;28;20007;-36
2023/06/07 05:27:55;;;;;;;15.98;4.80;;;;;;;13.93;90.60;102048.06;5075147;28;20028;-36
2023/06/07 05:30:20;;;;;;;;;;;;;;;14.12;88.85;102049.75;5075588;28;20048;-37
2023/06/07 05:32:48;;;;;;;8.00;4.18;;;;;;;13.91;89.03;102042.03;5074805;28;19931;-37
2023/06/07 05:35:13;;;;;;;7.57;4.35;;;;;;;13.94;89.16;102047.00;5075548;28;20025;-36
2023/06/07 05:37:39;;;;;;;;;;;;;;;14.10;88.25;102045.59;5074905;28;20025;-37
2023/06/07 05:40:07;;;;;;;10.02;4.60;;;;;;;14.07;89.19;102043.34;5074293;28;20323;-36
2023/06/07 05:42:38;;;;;;;8.95;3.88;;;;;;;14.13;89.11;102050.59;5075151;28;20028;-37
2023/06/07 05:45:04;;;;;;;6.25;3.90;;;;;;;14.08;88.83;102032.22;5074832;28;20476;-37
2023/06/07 05:47:30;;;;;;;8.32;4.22;;;;;;;14.25;88.07;102039.78;5074169;28;20024;-37
2023/06/07 05:49:56;;;;;;;;;;;;;;;14.40;87.15;102046.53;5074430;28;20040;-37
2023/06/07 05:52:21;;;;;;;7.93;4.30;;;;;;;14.30;88.08;102046.22;5074723;28;19908;-36
2023/06/07 05:54:51;;;;;;;10.60;4.43;;;;;;;14.10;87.77;102049.16;5074295;28;20067;-37
2023/06/07 05:57:17;;;;;;;9.93;4.13;;;;;;;14.16;88.40;102042.81;5074106;28;20024;-37
2023/06/07 05:59:42;;;;;;;;;;;;;;;14.24;87.20;102057.16;5074615;28;20070;-36
2023/06/07 06:02:07;;;;;;;12.10;4.10;;;;;;;14.18;87.44;102054.28;5074803;28;19923;-37
2023/06/07 06:04:33;;;;;;;9.65;4.00;;;;;;;14.10;87.52;102051.03;5074732;28;20730;-37
2023/06/07 06:07:00;;;;;;;;;;;;;;;14.36;86.62;102055.38;5074329;28;20029;-37
2023/06/07 06:09:25;;;;;;;7.75;3.85;;;;;;;14.29;86.61;102062.75;5074423;28;20234;-37
2023/06/07 06:11:51;;;;;;;7.38;3.63;;;;;;;14.47;86.65;102057.31;5074349;28;20029;-36
2023/06/07 06:14:16;;;;;;;;;;;;;;;14.60;85.71;102059.94;5074400;28;20039;-37
2023/06/07 06:16:42;;;;;;;8.43;4.30;;;;;;;14.42;85.80;102052.56;5074221;28;19915;-37
2023/06/07 06:19:07;;;;;;;;;;;;;;;14.64;85.33;102057.56;5074882;28;20071;-37
2023/06/07 06:21:32;;;;;;;9.43;4.40;;;;;;;14.51;86.84;102064.00;5074209;28;19916;-37
2023/06/07 06:23:58;;;;;;;;;;;;;;;14.73;85.20;102067.09;5074092;28;20365;-37
2023/06/07 06:26:25;;;;;;;6.93;3.90;;;;;;;14.59;84.87;102071.88;5072938;28;19962;-36
2023/06/07 06:28:50;;;;;;;6.45;3.63;;;;;;;14.65;85.45;102078.31;5074056;28;20274;-36
2023/06/07 06:31:15;;;;;;;;;;;;;;;14.91;84.87;102068.97;5074802;28;20051;-36
2023/06/07 06:33:44;;;;;;;7.60;3.90;;;;;;;14.96;83.21;102060.94;5074266;28;20311;-36
2023/06/07 06:36:10;;;;;;;9.73;4.15;;;;;;;15.18;82.97;102061.25;5073971;28;20762;-36
2023/06/07 06:38:35;;;;;;;;;;;;;;;15.32;82.46;102062.69;5074652;28;20113;-36
2023/06/07 06:41:00;;;;;;;8.70;4.17;;;;;;;15.17;82.42;102065.03;5073931;28;19923;-36
2023/06/07 06:43:26;;;;;;;11.18;4.00;;;;;;;15.11;82.27;102063.22;5074445;28;20302;-36
2023/06/07 06:45:51;;;;;;;;;;;;;;;15.32;81.84;102073.59;5074854;28;20028;-37
2023/06/07 06:48:16;;;;;;;10.30;4.10;;;;;;;15.19;80.90;102066.47;5073927;28;19954;-37
2023/06/07 06:50:43;;;;;;;;;;;;;;;15.38;81.17;102082.75;5074081;28;20032;-37
2023/06/07 06:53:09;;;;;;;6.80;3.37;;;;;;;15.18;81.55;102080.31;5073731;28;19914;-37
2023/06/07 06:55:34;;;;;;;;;;;;;;;15.38;81.38;102080.84;5074002;28;20607;-37
2023/06/07 06:57:59;;;;;;;6.70;3.60;;;;;;;15.17;81.02;102075.91;5073518;28;19909;-36
2023/06/07 07:00:25;;;;;;;6.43;3.97;;;;;;;15.12;81.11;102075.78;5073403;28;20020;-36
2023/06/07 07:02:51;;;;;;;;;;;;;;;15.23;81.08;102085.91;5074200;28;20504;-36
2023/06/07 07:05:16;;;;;;;8.73;3.60;;;;;;;15.03;82.36;102077.16;5074281;28;20283;-36
2023/06/07 07:07:42;;;;;;;;;;;;;;;15.23;81.54;102087.81;5074395;28;20104;-36
2023/06/07 07:10:07;;;;;;;11.77;4.47;;;;;;;15.10;81.88;102094.25;5073369;28;19962;-37
2023/06/07 07:12:33;;;;;;;;;;;;;;;15.26;81.98;102096.31;5073798;28;20024;-37
2023/06/07 07:14:58;;;;;;;7.13;3.70;;;;;;;15.21;82.00;102085.28;5073277;28;19908;-37
2023/06/07 07:17:23;;;;;;;;;;;;;;;15.41;81.28;102107.63;5073649;28;20028;-37
2023/06/07 07:19:49;;;;;;;6.77;4.13;;;;;;;15.31;81.32;102085.56;5073226;28;19912;-36
2023/06/07 07:22:14;;;;;;;9.00;3.97;;;;;;;15.37;80.23;102083.78;5076249;28;20747;-37
2023/06/07 07:24:39;;;;;;;14.75;4.60;;;;;;;15.40;80.89;102086.06;5077334;28;20028;-36
2023/06/07 07:27:06;;;;;;;;;;;;;;;15.61;79.94;102096.41;5077981;28;20514;-36
2023/06/07 07:29:32;;;;;;;8.15;3.80;;;;;;;15.63;80.55;102097.06;5076907;28;19908;-37
2023/06/07 07:31:57;;;;;;;;;;;;;;;15.76;79.90;102087.81;5078516;28;20029;-37
2023/06/07 07:34:22;;;;;;;12.20;4.13;;;;;;;15.65;79.75;102092.19;5077277;28;19908;-37
2023/06/07 07:36:50;;;;;;;;;;;;;;;15.86;79.35;102098.16;5077821;28;20265;-37
2023/06/07 07:39:16;;;;;;;6.05;3.55;;;;;;;15.81;79.85;102093.44;5076863;28;19938;-37
2023/06/07 07:41:41;;;;;;;7.65;4.20;;;;;;;15.74;78.77;102103.59;5077453;28;20583;-37
2023/06/07 07:44:07;;;;;;;;;;;;;;;16.02;79.24;102099.38;5077355;28;20107;-37
2023/06/07 07:46:32;;;;;;;9.02;3.88;;;;;;;16.03;77.75;102095.56;5077195;28;20254;-37
2023/06/07 07:48:57;;;;;;;;;;;;;;;16.15;78.83;102099.97;5077440;28;20041;-37
2023/06/07 07:51:23;;;;;;;7.95;4.00;;;;;;;15.93;78.00;102093.41;5077009;28;20264;-37
2023/06/07 07:53:52;;;;;;;;;;;;;;;16.20;77.94;102099.22;5077662;28;20458;-37
2023/06/07 07:56:18;;;;;;;7.72;3.97;;;;;;;16.27;78.22;102101.84;5076582;28;20018;-36
2023/06/07 07:58:50;;;;;;;11.27;3.90;;;;;;;16.43;78.07;102104.66;5076628;28;20078;-36
2023/06/07 08:01:17;;;;;;;8.65;3.95;;;;;;;16.64;79.93;102110.56;5077434;28;20372;-36
2023/06/07 08:03:42;;;;;;;10.85;4.15;;;;;;;16.66;76.51;102106.53;5076529;28;20081;-36
2023/06/07 08:06:08;;;;;;;;;;;;;;;16.85;76.64;102107.22;5076993;28;20028;-36
2023/06/07 08:08:33;;;;;;;8.30;3.75;;;;;;;16.62;74.88;102112.72;5076061;28;19909;-36
2023/06/07 08:11:00;;;;;;;;;;;;;;;16.88;75.96;102106.72;5076857;28;20020;-36
2023/06/07 08:13:25;;;;;;;8.60;3.75;;;;;;;16.90;75.29;102103.78;5077103;28;19961;-37
2023/06/07 08:15:50;;;;;;;;;;;;;;;17.07;74.02;102107.38;5076804;28;20111;-37
2023/06/07 08:18:17;;;;;;;7.67;3.77;;;;;;;17.11;72.95;102092.16;5076320;28;19912;-37
2023/06/07 08:20:42;;;;;;;8.45;3.80;;;;;;;17.24;72.49;102083.66;5076127;28;20021;-37
2023/06/07 08:23:07;;;;;;;7.82;4.22;;;;;;;17.52;71.63;102090.19;5075928;28;20389;-37
2023/06/07 08:25:33;;;;;;;8.43;4.30;;;;;;;17.66;71.18;102088.75;5076487;28;20464;-37
2023/06/07 08:27:58;;;;;;;11.85;4.20;;;;;;;17.80;69.97;102083.00;5075804;28;20040;-37
2023/06/07 08:30:23;;;;;;;;;;;;;;;18.25;71.05;102091.91;5076749;28;20083;-37
2023/06/07 08:32:50;;;;;;;8.98;4.30;;;;;;;18.35;67.09;102101.31;5076295;28;20253;-37
2023/06/07 08:35:15;;;;;;;9.75;4.65;;;;;;;18.48;66.46;102093.56;5076283;28;20039;-37
2023/06/07 08:37:41;;;;;;;8.13;3.95;;;;;;;18.35;66.36;102091.22;5076488;28;20028;-36
2023/06/07 08:40:08;;;;;;;;;;;;;;;18.65;66.77;102095.44;5076258;28;20136;-37
2023/06/07 08:42:34;;;;;;;9.20;3.97;;;;;;;18.35;66.39;102087.63;5076349;28;19912;-37
2023/06/07 08:45:00;;;;;;;9.23;3.80;;;;;;;18.54;66.92;102069.81;5076035;28;20036;-37
2023/06/07 08:47:28;;;;;;;7.45;3.72;;;;;;;18.75;66.13;102088.22;5075715;28;20024;-37
2023/06/07 08:50:00;;;;;;;6.97;4.03;;;;;;;18.94;66.08;102079.66;5075687;28;20048;-36
2023/06/07 08:52:26;;;;;;;7.88;3.67;;;;;;;19.15;64.86;102086.19;5076158;28;20377;-37
2023/06/07 08:54:58;;;;;;;10.50;4.25;;;;;;;19.11;65.72;102074.91;5075537;28;20024;-37
2023/06/07 08:57:24;;;;;;;10.85;4.68;;;;;;;18.99;64.00;102079.72;5076330;28;20354;-37
2023/06/07 08:59:50;;;;;;;11.40;4.60;;;;;;;19.26;66.24;102094.25;5075373;28;20025;-37
2023/06/07 09:02:17;;;;;;;7.95;4.03;;;;;;;19.18;65.06;102081.03;5075413;28;20051;-36
2023/06/07 09:04:43;;;;;;;8.65;4.10;;;;;;;19.34;64.33;102090.22;5075026;28;20480;-37
2023/06/07 09:07:09;;;;;;;8.95;4.13;;;;;;;19.47;62.91;102088.94;5075685;28;20029;-37
2023/06/07 09:09:35;;;;;;;9.57;4.40;;;;;;;19.64;63.09;102075.97;5075494;28;20068;-38
2023/06/07 09:12:01;;;;;;;7.50;3.92;;;;;;;20.00;62.67;102073.47;5075829;28;20037;-37
2023/06/07 09:14:29;;;;;;;7.68;3.90;;;;;;;20.24;62.25;102082.97;5074886;28;20048;-38
2023/06/07 09:16:56;;;;;;;12.80;4.95;;;;;;;20.09;61.20;102087.53;5075738;28;20369;-38
2023/06/07 09:19:33;;;;;;;10.23;3.75;;;;;;;20.31;62.34;102089.06;5075268;28;20407;-38
2023/06/07 09:21:59;;;;;;;8.50;3.95;;;;;;;20.52;61.72;102078.22;5075071;28;20039;-38
2023/06/07 09:24:28;;;;;;;8.20;4.40;;;;;;;20.31;61.38;102089.06;5075780;28;20032;-37
2023/06/07 09:26:55;;;;;;;6.88;3.83;;;;;;;20.30;61.21;102084.69;5074987;28;20025;-37
2023/06/07 09:29:21;;;;;;;9.13;3.83;;;;;;;20.08;61.82;102081.22;5075128;28;20047;-36
2023/06/07 09:31:46;;;;;;;8.73;3.85;;;;;;;19.83;61.47;102086.56;5074462;28;20481;-36
2023/06/07 09:34:28;;;;;;;9.00;4.05;;;;;;;19.98;61.43;102090.22;5075317;28;20031;-37
2023/06/07 09:36:57;;;;;;;7.15;3.92;;;;;;;20.09;60.65;102079.31;5074685;28;20068;-37
2023/06/07 09:39:24;;;;;;;6.47;4.43;;;;;;;19.84;61.26;102088.19;5074831;28;20424;-36
2023/06/07 09:41:54;;;;;;;8.40;4.43;;;;;;;19.75;62.49;102083.19;5074637;28;20469;-37
2023/06/07 09:44:27;;;;;;;9.32;4.57;;;;;;;19.59;62.59;102095.09;5074321;28;20028;-37
2023/06/07 09:46:54;;;;;;;10.30;4.57;;;;;;;19.58;62.59;102079.72;5075100;28;20020;-37
2023/06/07 09:49:26;;;;;;;9.43;4.20;;;;;;;19.64;63.08;102089.69;5074651;28;20025;-37
2023/06/07 09:51:52;;;;;;;9.63;4.93;;;;;;;19.56;62.81;102087.38;5074719;28;20447;-37
2023/06/07 09:54:19;;;;;;;8.95;4.30;;;;;;;19.39;62.11;102087.53;5074663;28;20032;-37
2023/06/07 09:56:45;;;;;;;8.75;4.45;;;;;;;19.30;63.09;102083.59;5074350;28;20024;-37
2023/06/07 09:59:16;;;;;;;8.55;4.53;;;;;;;19.27;63.01;102084.09;5073960;28;20401;-37
2023/06/07 10:01:43;;;;;;;9.23;4.65;;;;;;;19.26;63.06;102087.94;5074842;28;20519;-36
2023/06/07 10:04:09;;;;;;;10.73;4.40;;;;;;;19.42;62.28;102084.25;5074153;28;20480;-36
2023/06/07 10:06:41;;;;;;;9.80;4.90;;;;;;;19.45;63.17;102080.16;5074743;28;20021;-37
2023/06/07 10:09:07;;;;;;;10.75;5.03;;;;;;;19.43;62.13;102083.19;5074639;28;20025;-37
2023/06/07 10:11:35;;;;;;;7.47;4.20;;;;;;;19.67;64.27;102086.44;5073399;28;20480;-37
2023/06/07 10:14:11;;;;;;;10.40;5.22;;;;;;;19.64;63.46;102081.47;5074013;28;20024;-37
2023/06/07 10:16:37;;;;;;;;;;;;;;;19.68;63.00;102079.84;5075053;28;20063;-37
2023/06/07 10:19:23;;;;;;;9.23;4.80;;;;;;;19.68;64.12;102074.38;5074194;28;19944;-37
2023/06/07 10:21:53;;;;;;;10.80;5.10;;;;;;;19.50;63.57;102070.06;5074795;28;20042;-36
2023/06/07 10:24:24;;;;;;;9.40;4.65;;;;;;;19.51;64.69;102074.44;5074457;28;20024;-37
2023/06/07 10:27:05;;;;;;;8.35;4.50;;;;;;;19.58;65.06;102071.50;5074164;28;20419;-36
2023/06/07 10:29:41;;;;;;;14.75;5.13;;;;;;;19.66;64.23;102071.03;5074445;28;20103;-37
2023/06/07 10:32:12;;;;;;;9.93;5.40;;;;;;;19.72;64.49;102069.19;5073499;28;20165;-37
2023/06/07 10:34:39;;;;;;;8.95;4.43;;;;;;;19.96;63.76;102066.84;5074267;28;20346;-37
2023/06/07 10:37:07;;;;;;;9.98;4.38;;;;;;;19.92;63.62;102068.50;5073748;28;20040;-37
2023/06/07 10:39:34;;;;;;;7.90;4.50;;;;;;;19.99;64.67;102080.06;5073518;28;20043;-37
2023/06/07 10:42:00;;;;;;;9.90;4.57;;;;;;;19.99;63.53;102074.56;5073368;28;20028;-37
2023/06/07 10:44:25;;;;;;;8.30;4.78;;;;;;;19.94;63.26;102064.38;5073897;28;20029;-37
2023/06/07 10:47:23;;;;;;;7.22;4.50;;;;;;;20.31;63.75;102066.28;5074534;28;20461;-37
2023/06/07 10:49:49;;;;;;;9.27;4.18;;;;;;;20.47;64.22;102054.28;5073647;28;20029;-37
2023/06/07 10:52:15;;;;;;;8.85;4.65;;;;;;;20.52;62.32;102064.47;5073225;28;20027;-38
2023/06/07 10:54:42;;;;;;;7.35;4.00;;;;;;;20.57;60.77;102050.75;5073317;28;20039;-37
2023/06/07 10:57:08;;;;;;;8.18;4.18;;;;;;;20.62;60.77;102050.75;5073765;28;20070;-36
2023/06/07 10:59:35;;;;;;;10.30;5.15;;;;;;;20.55;60.69;102055.69;5073639;28;20435;-37
2023/06/07 11:02:20;;;;;;;9.07;4.65;;;;;;;20.66;61.67;102051.88;5074533;28;20414;-37
2023/06/07 11:04:48;;;;;;;8.60;4.65;;;;;;;20.29;60.51;102044.53;5073659;28;20029;-37
2023/06/07 11:07:23;;;;;;;8.43;4.28;;;;;;;20.37;61.33;102053.38;5073722;28;20076;-37
2023/06/07 11:10:09;;;;;;;7.32;4.53;;;;;;;20.35;61.53;102047.31;5073656;28;20024;-37
2023/06/07 11:12:40;;;;;;;8.38;4.57;;;;;;;20.46;61.36;102047.09;5073302;28;20064;-37
2023/06/07 11:15:17;;;;;;;12.80;4.93;;;;;;;20.68;62.34;102049.69;5073855;28;20036;-37
2023/06/07 11:18:00;;;;;;;6.78;4.47;;;;;;;20.59;60.94;102040.31;5073913;28;20029;-37
2023/06/07 11:20:38;;;;;;;9.38;4.13;;;;;;;20.80;60.39;102052.22;5073772;28;20040;-37
2023/06/07 11:23:23;;;;;;;10.93;3.97;;;;;;;20.94;60.11;102047.84;5074123;28;20444;-37
2023/06/07 11:25:54;;;;;;;7.10;4.20;;;;;;;20.95;60.03;102037.69;5073810;28;20350;-36
2023/06/07 11:28:31;;;;;;;7.22;4.28;;;;;;;20.91;59.41;102031.06;5073783;28;20381;-37
2023/06/07 11:30:56;;;;;;;8.73;4.25;;;;;;;20.96;59.12;102029.16;5072766;28;20480;-37
2023/06/07 11:33:22;;;;;;;8.40;4.15;;;;;;;20.82;58.17;102031.59;5073389;28;20104;-37
2023/06/07 11:35:52;;;;;;;8.73;4.05;;;;;;;20.88;57.89;102031.59;5073107;28;20377;-37
2023/06/07 11:38:21;;;;;;;7.57;4.22;;;;;;;20.93;58.53;102031.59;5073085;28;20074;-37
2023/06/07 11:40:47;;;;;;;6.90;3.92;;;;;;;20.92;59.78;102028.03;5073295;28;20063;-37